sensor_id;sensor_type;location;lat;lon;timestamp;P1;durP1;ratioP1;P2;durP2;ratioP2
74344;SDS011;62776;50.518;6.732;2022-12-07T00:01:15;16.83;;;14.45;;
74344;SDS011;62776;50.518;6.732;2022-12-07T00:04:04;13.55;;;12.23;;
74344;SDS011;62776;50.518;6.732;2022-12-07T00:06:52;12.48;;;11.32;;
74344;SDS011;62776;50.518;6.732;2022-12-07T00:09:38;11.25;;;10.20;;
74344;SDS011;62776;50.518;6.732;2022-12-07T00:12:26;13.07;;;11.82;;
74344;SDS011;62776;50.518;6.732;2022-12-07T00:15:12;12.85;;;11.63;;
74344;SDS011;62776;50.518;6.732;2022-12-07T00:17:58;11.40;;;10.30;;
74344;SDS011;62776;50.518;6.732;2022-12-07T00:20:44;11.88;;;10.70;;
74344;SDS011;62776;50.518;6.732;2022-12-07T00:23:30;10.70;;;9.75;;
74344;SDS011;62776;50.518;6.732;2022-12-07T00:26:21;12.52;;;10.20;;
74344;SDS011;62776;50.518;6.732;2022-12-07T00:29:09;12.35;;;11.23;;
74344;SDS011;62776;50.518;6.732;2022-12-07T00:32:02;13.05;;;11.75;;
74344;SDS011;62776;50.518;6.732;2022-12-07T00:34:48;13.43;;;12.15;;
74344;SDS011;62776;50.518;6.732;2022-12-07T00:37:34;13.13;;;11.82;;
74344;SDS011;62776;50.518;6.732;2022-12-07T00:40:20;13.00;;;11.80;;
74344;SDS011;62776;50.518;6.732;2022-12-07T00:43:06;13.90;;;12.45;;
74344;SDS011;62776;50.518;6.732;2022-12-07T00:45:53;20.13;;;15.13;;
74344;SDS011;62776;50.518;6.732;2022-12-07T00:48:39;14.27;;;12.82;;
74344;SDS011;62776;50.518;6.732;2022-12-07T00:51:26;14.50;;;13.05;;
74344;SDS011;62776;50.518;6.732;2022-12-07T00:54:12;15.35;;;13.85;;
74344;SDS011;62776;50.518;6.732;2022-12-07T00:56:58;15.45;;;13.85;;
74344;SDS011;62776;50.518;6.732;2022-12-07T00:59:44;15.85;;;14.25;;
74344;SDS011;62776;50.518;6.732;2022-12-07T01:02:30;15.18;;;13.57;;
74344;SDS011;62776;50.518;6.732;2022-12-07T01:05:16;17.38;;;15.57;;
74344;SDS011;62776;50.518;6.732;2022-12-07T01:08:02;15.18;;;13.65;;
74344;SDS011;62776;50.518;6.732;2022-12-07T01:10:49;20.20;;;16.15;;
74344;SDS011;62776;50.518;6.732;2022-12-07T01:13:43;17.88;;;15.57;;
74344;SDS011;62776;50.518;6.732;2022-12-07T01:16:30;15.68;;;14.07;;
74344;SDS011;62776;50.518;6.732;2022-12-07T01:19:17;14.98;;;13.38;;
74344;SDS011;62776;50.518;6.732;2022-12-07T01:22:03;16.48;;;14.57;;
74344;SDS011;62776;50.518;6.732;2022-12-07T01:24:49;17.95;;;13.93;;
74344;SDS011;62776;50.518;6.732;2022-12-07T01:27:35;14.18;;;12.68;;
74344;SDS011;62776;50.518;6.732;2022-12-07T01:30:22;13.07;;;11.68;;
74344;SDS011;62776;50.518;6.732;2022-12-07T01:33:08;14.15;;;12.80;;
74344;SDS011;62776;50.518;6.732;2022-12-07T01:35:54;13.88;;;12.20;;
74344;SDS011;62776;50.518;6.732;2022-12-07T01:38:53;14.18;;;12.18;;
74344;SDS011;62776;50.518;6.732;2022-12-07T01:41:41;13.18;;;11.88;;
74344;SDS011;62776;50.518;6.732;2022-12-07T01:44:29;14.07;;;12.63;;
74344;SDS011;62776;50.518;6.732;2022-12-07T01:47:16;14.13;;;12.63;;
74344;SDS011;62776;50.518;6.732;2022-12-07T01:50:03;14.75;;;12.38;;
74344;SDS011;62776;50.518;6.732;2022-12-07T01:52:49;15.30;;;13.65;;
74344;SDS011;62776;50.518;6.732;2022-12-07T01:55:38;15.18;;;13.68;;
74344;SDS011;62776;50.518;6.732;2022-12-07T01:58:28;16.23;;;13.60;;
74344;SDS011;62776;50.518;6.732;2022-12-07T02:01:14;17.83;;;14.23;;
74344;SDS011;62776;50.518;6.732;2022-12-07T02:04:01;13.82;;;12.50;;
74344;SDS011;62776;50.518;6.732;2022-12-07T02:06:48;15.80;;;13.98;;
74344;SDS011;62776;50.518;6.732;2022-12-07T02:09:35;15.85;;;13.43;;
74344;SDS011;62776;50.518;6.732;2022-12-07T02:12:21;16.80;;;13.63;;
74344;SDS011;62776;50.518;6.732;2022-12-07T02:15:09;15.65;;;14.05;;
74344;SDS011;62776;50.518;6.732;2022-12-07T02:18:01;16.75;;;14.95;;
74344;SDS011;62776;50.518;6.732;2022-12-07T02:24:01;16.83;;;14.65;;
74344;SDS011;62776;50.518;6.732;2022-12-07T02:30:19;18.30;;;16.27;;
74344;SDS011;62776;50.518;6.732;2022-12-07T02:33:11;17.92;;;15.93;;
74344;SDS011;62776;50.518;6.732;2022-12-07T02:36:04;20.17;;;17.65;;
74344;SDS011;62776;50.518;6.732;2022-12-07T02:39:00;25.15;;;19.95;;
74344;SDS011;62776;50.518;6.732;2022-12-07T02:42:11;21.88;;;18.45;;
74344;SDS011;62776;50.518;6.732;2022-12-07T02:45:04;23.40;;;19.20;;
74344;SDS011;62776;50.518;6.732;2022-12-07T02:47:52;23.92;;;18.35;;
74344;SDS011;62776;50.518;6.732;2022-12-07T02:50:44;29.10;;;22.70;;
74344;SDS011;62776;50.518;6.732;2022-12-07T02:53:37;26.48;;;20.58;;
74344;SDS011;62776;50.518;6.732;2022-12-07T03:02:58;18.92;;;16.52;;
74344;SDS011;62776;50.518;6.732;2022-12-07T03:05:59;19.20;;;17.20;;
74344;SDS011;62776;50.518;6.732;2022-12-07T03:09:06;22.83;;;18.98;;
74344;SDS011;62776;50.518;6.732;2022-12-07T03:12:08;18.27;;;15.95;;
74344;SDS011;62776;50.518;6.732;2022-12-07T03:15:03;17.17;;;15.48;;
74344;SDS011;62776;50.518;6.732;2022-12-07T03:17:56;20.42;;;17.48;;
74344;SDS011;62776;50.518;6.732;2022-12-07T03:20:44;17.35;;;15.68;;
74344;SDS011;62776;50.518;6.732;2022-12-07T03:23:33;18.55;;;16.55;;
74344;SDS011;62776;50.518;6.732;2022-12-07T03:26:23;15.77;;;14.18;;
74344;SDS011;62776;50.518;6.732;2022-12-07T03:29:21;15.52;;;13.95;;
74344;SDS011;62776;50.518;6.732;2022-12-07T03:32:19;14.93;;;13.43;;
74344;SDS011;62776;50.518;6.732;2022-12-07T03:35:14;15.20;;;13.27;;
74344;SDS011;62776;50.518;6.732;2022-12-07T03:41:07;14.80;;;13.20;;
74344;SDS011;62776;50.518;6.732;2022-12-07T03:43:59;13.55;;;12.23;;
74344;SDS011;62776;50.518;6.732;2022-12-07T03:49:46;16.83;;;14.77;;
74344;SDS011;62776;50.518;6.732;2022-12-07T03:52:44;14.90;;;13.40;;
74344;SDS011;62776;50.518;6.732;2022-12-07T03:55:48;14.13;;;12.68;;
74344;SDS011;62776;50.518;6.732;2022-12-07T03:58:35;14.80;;;13.30;;
74344;SDS011;62776;50.518;6.732;2022-12-07T04:01:23;13.27;;;12.10;;
74344;SDS011;62776;50.518;6.732;2022-12-07T04:04:10;15.75;;;13.93;;
74344;SDS011;62776;50.518;6.732;2022-12-07T04:06:56;16.17;;;14.20;;
74344;SDS011;62776;50.518;6.732;2022-12-07T04:09:42;14.23;;;12.88;;
74344;SDS011;62776;50.518;6.732;2022-12-07T04:12:28;16.90;;;15.20;;
74344;SDS011;62776;50.518;6.732;2022-12-07T04:15:14;19.25;;;16.15;;
74344;SDS011;62776;50.518;6.732;2022-12-07T04:18:00;22.95;;;18.45;;
74344;SDS011;62776;50.518;6.732;2022-12-07T04:20:46;18.08;;;15.88;;
74344;SDS011;62776;50.518;6.732;2022-12-07T04:23:33;30.35;;;21.85;;
74344;SDS011;62776;50.518;6.732;2022-12-07T04:26:19;39.30;;;23.88;;
74344;SDS011;62776;50.518;6.732;2022-12-07T04:29:05;31.95;;;21.65;;
74344;SDS011;62776;50.518;6.732;2022-12-07T04:31:51;44.90;;;28.08;;
74344;SDS011;62776;50.518;6.732;2022-12-07T04:34:38;37.33;;;26.42;;
74344;SDS011;62776;50.518;6.732;2022-12-07T04:37:24;39.03;;;25.27;;
74344;SDS011;62776;50.518;6.732;2022-12-07T04:40:10;42.28;;;27.55;;
74344;SDS011;62776;50.518;6.732;2022-12-07T04:42:59;41.33;;;26.48;;
74344;SDS011;62776;50.518;6.732;2022-12-07T04:45:46;50.22;;;30.73;;
74344;SDS011;62776;50.518;6.732;2022-12-07T04:48:32;46.67;;;27.52;;
74344;SDS011;62776;50.518;6.732;2022-12-07T04:51:19;44.33;;;28.85;;
74344;SDS011;62776;50.518;6.732;2022-12-07T04:54:08;62.88;;;35.30;;
74344;SDS011;62776;50.518;6.732;2022-12-07T04:56:54;47.35;;;29.30;;
74344;SDS011;62776;50.518;6.732;2022-12-07T04:59:40;39.88;;;26.38;;
74344;SDS011;62776;50.518;6.732;2022-12-07T05:02:26;49.08;;;28.90;;
74344;SDS011;62776;50.518;6.732;2022-12-07T05:05:12;38.25;;;25.83;;
74344;SDS011;62776;50.518;6.732;2022-12-07T05:07:58;51.17;;;30.60;;
74344;SDS011;62776;50.518;6.732;2022-12-07T05:10:44;50.35;;;28.00;;
74344;SDS011;62776;50.518;6.732;2022-12-07T05:13:30;38.58;;;24.65;;
74344;SDS011;62776;50.518;6.732;2022-12-07T05:16:17;45.95;;;29.30;;
74344;SDS011;62776;50.518;6.732;2022-12-07T05:19:03;64.10;;;30.15;;
74344;SDS011;62776;50.518;6.732;2022-12-07T05:21:49;43.83;;;26.23;;
74344;SDS011;62776;50.518;6.732;2022-12-07T05:24:35;44.45;;;27.25;;
74344;SDS011;62776;50.518;6.732;2022-12-07T05:27:21;40.58;;;26.67;;
74344;SDS011;62776;50.518;6.732;2022-12-07T05:30:08;53.38;;;29.58;;
74344;SDS011;62776;50.518;6.732;2022-12-07T05:32:54;38.20;;;25.05;;
74344;SDS011;62776;50.518;6.732;2022-12-07T05:35:41;38.38;;;25.20;;
74344;SDS011;62776;50.518;6.732;2022-12-07T05:38:27;52.53;;;27.58;;
74344;SDS011;62776;50.518;6.732;2022-12-07T05:41:15;40.30;;;25.08;;
74344;SDS011;62776;50.518;6.732;2022-12-07T05:44:22;40.90;;;24.95;;
74344;SDS011;62776;50.518;6.732;2022-12-07T05:47:09;40.30;;;24.92;;
74344;SDS011;62776;50.518;6.732;2022-12-07T05:49:58;34.10;;;21.35;;
74344;SDS011;62776;50.518;6.732;2022-12-07T05:52:44;38.45;;;24.60;;
74344;SDS011;62776;50.518;6.732;2022-12-07T05:55:30;33.78;;;21.63;;
74344;SDS011;62776;50.518;6.732;2022-12-07T05:58:16;29.25;;;20.05;;
74344;SDS011;62776;50.518;6.732;2022-12-07T06:01:21;36.17;;;22.75;;
74344;SDS011;62776;50.518;6.732;2022-12-07T06:04:07;42.00;;;23.92;;
74344;SDS011;62776;50.518;6.732;2022-12-07T06:06:53;33.65;;;21.33;;
74344;SDS011;62776;50.518;6.732;2022-12-07T06:09:39;33.05;;;20.02;;
74344;SDS011;62776;50.518;6.732;2022-12-07T06:12:26;58.08;;;25.92;;
74344;SDS011;62776;50.518;6.732;2022-12-07T06:15:31;50.83;;;27.80;;
74344;SDS011;62776;50.518;6.732;2022-12-07T06:18:17;39.33;;;23.50;;
74344;SDS011;62776;50.518;6.732;2022-12-07T06:21:03;42.80;;;24.42;;
74344;SDS011;62776;50.518;6.732;2022-12-07T06:23:49;28.92;;;19.25;;
74344;SDS011;62776;50.518;6.732;2022-12-07T06:26:35;32.50;;;21.00;;
74344;SDS011;62776;50.518;6.732;2022-12-07T06:29:21;31.80;;;23.00;;
74344;SDS011;62776;50.518;6.732;2022-12-07T06:32:07;26.60;;;18.83;;
74344;SDS011;62776;50.518;6.732;2022-12-07T06:34:54;44.97;;;26.42;;
74344;SDS011;62776;50.518;6.732;2022-12-07T06:37:40;29.05;;;19.98;;
74344;SDS011;62776;50.518;6.732;2022-12-07T06:40:26;43.55;;;23.85;;
74344;SDS011;62776;50.518;6.732;2022-12-07T06:43:12;33.42;;;20.75;;
74344;SDS011;62776;50.518;6.732;2022-12-07T06:45:58;31.35;;;21.10;;
74344;SDS011;62776;50.518;6.732;2022-12-07T06:48:44;39.65;;;22.65;;
74344;SDS011;62776;50.518;6.732;2022-12-07T06:51:31;24.52;;;17.55;;
74344;SDS011;62776;50.518;6.732;2022-12-07T06:54:18;36.53;;;21.67;;
74344;SDS011;62776;50.518;6.732;2022-12-07T06:57:04;36.58;;;22.15;;
74344;SDS011;62776;50.518;6.732;2022-12-07T06:59:50;34.53;;;21.10;;
74344;SDS011;62776;50.518;6.732;2022-12-07T07:02:36;47.03;;;27.98;;
74344;SDS011;62776;50.518;6.732;2022-12-07T07:05:22;28.83;;;18.65;;
74344;SDS011;62776;50.518;6.732;2022-12-07T07:08:08;25.50;;;18.27;;
74344;SDS011;62776;50.518;6.732;2022-12-07T07:10:54;24.92;;;16.85;;
74344;SDS011;62776;50.518;6.732;2022-12-07T07:13:40;41.15;;;23.02;;
74344;SDS011;62776;50.518;6.732;2022-12-07T07:16:26;27.55;;;19.17;;
74344;SDS011;62776;50.518;6.732;2022-12-07T07:19:15;34.15;;;20.13;;
74344;SDS011;62776;50.518;6.732;2022-12-07T07:22:01;35.28;;;22.15;;
74344;SDS011;62776;50.518;6.732;2022-12-07T07:24:47;32.10;;;19.88;;
74344;SDS011;62776;50.518;6.732;2022-12-07T07:27:33;29.65;;;18.98;;
74344;SDS011;62776;50.518;6.732;2022-12-07T07:30:19;34.38;;;20.40;;
74344;SDS011;62776;50.518;6.732;2022-12-07T07:33:05;28.73;;;19.90;;
74344;SDS011;62776;50.518;6.732;2022-12-07T07:35:52;34.08;;;20.40;;
74344;SDS011;62776;50.518;6.732;2022-12-07T07:38:38;31.65;;;21.27;;
74344;SDS011;62776;50.518;6.732;2022-12-07T07:41:25;35.08;;;21.45;;
74344;SDS011;62776;50.518;6.732;2022-12-07T07:44:11;31.70;;;21.00;;
74344;SDS011;62776;50.518;6.732;2022-12-07T07:46:57;36.35;;;21.55;;
74344;SDS011;62776;50.518;6.732;2022-12-07T07:49:43;28.92;;;18.00;;
74344;SDS011;62776;50.518;6.732;2022-12-07T07:52:30;33.03;;;20.45;;
74344;SDS011;62776;50.518;6.732;2022-12-07T07:55:16;30.55;;;19.73;;
74344;SDS011;62776;50.518;6.732;2022-12-07T07:58:02;31.08;;;19.98;;
74344;SDS011;62776;50.518;6.732;2022-12-07T08:00:48;28.73;;;17.95;;
74344;SDS011;62776;50.518;6.732;2022-12-07T08:03:35;23.50;;;16.85;;
74344;SDS011;62776;50.518;6.732;2022-12-07T08:06:21;30.88;;;19.95;;
74344;SDS011;62776;50.518;6.732;2022-12-07T08:09:07;20.50;;;15.02;;
74344;SDS011;62776;50.518;6.732;2022-12-07T08:11:54;19.40;;;15.40;;
74344;SDS011;62776;50.518;6.732;2022-12-07T08:14:40;26.52;;;16.58;;
74344;SDS011;62776;50.518;6.732;2022-12-07T08:17:26;21.80;;;15.43;;
74344;SDS011;62776;50.518;6.732;2022-12-07T08:20:12;33.00;;;19.83;;
74344;SDS011;62776;50.518;6.732;2022-12-07T08:22:58;20.65;;;15.48;;
74344;SDS011;62776;50.518;6.732;2022-12-07T08:25:45;21.42;;;15.20;;
74344;SDS011;62776;50.518;6.732;2022-12-07T08:28:31;21.83;;;15.85;;
74344;SDS011;62776;50.518;6.732;2022-12-07T08:31:17;26.35;;;15.80;;
74344;SDS011;62776;50.518;6.732;2022-12-07T08:34:03;21.33;;;15.30;;
74344;SDS011;62776;50.518;6.732;2022-12-07T08:36:50;22.17;;;15.05;;
74344;SDS011;62776;50.518;6.732;2022-12-07T08:39:36;17.80;;;12.75;;
74344;SDS011;62776;50.518;6.732;2022-12-07T08:42:22;17.10;;;13.23;;
74344;SDS011;62776;50.518;6.732;2022-12-07T08:45:13;21.67;;;14.93;;
74344;SDS011;62776;50.518;6.732;2022-12-07T08:48:02;14.95;;;11.35;;
74344;SDS011;62776;50.518;6.732;2022-12-07T08:50:55;14.88;;;11.77;;
74344;SDS011;62776;50.518;6.732;2022-12-07T08:53:41;14.90;;;11.55;;
74344;SDS011;62776;50.518;6.732;2022-12-07T08:56:28;15.25;;;10.32;;
74344;SDS011;62776;50.518;6.732;2022-12-07T08:59:15;14.20;;;10.18;;
74344;SDS011;62776;50.518;6.732;2022-12-07T09:02:03;10.75;;;9.18;;
74344;SDS011;62776;50.518;6.732;2022-12-07T09:04:50;18.02;;;10.32;;
74344;SDS011;62776;50.518;6.732;2022-12-07T09:07:36;12.98;;;10.05;;
74344;SDS011;62776;50.518;6.732;2022-12-07T09:10:23;10.43;;;8.55;;
74344;SDS011;62776;50.518;6.732;2022-12-07T09:13:10;10.13;;;8.35;;
74344;SDS011;62776;50.518;6.732;2022-12-07T09:15:56;12.77;;;9.23;;
74344;SDS011;62776;50.518;6.732;2022-12-07T09:18:42;10.05;;;8.75;;
74344;SDS011;62776;50.518;6.732;2022-12-07T09:21:29;15.70;;;8.98;;
74344;SDS011;62776;50.518;6.732;2022-12-07T09:24:15;8.18;;;7.20;;
74344;SDS011;62776;50.518;6.732;2022-12-07T09:27:01;13.50;;;8.60;;
74344;SDS011;62776;50.518;6.732;2022-12-07T09:29:47;10.35;;;7.60;;
74344;SDS011;62776;50.518;6.732;2022-12-07T09:32:33;8.63;;;7.75;;
74344;SDS011;62776;50.518;6.732;2022-12-07T09:35:19;14.85;;;8.90;;
74344;SDS011;62776;50.518;6.732;2022-12-07T09:38:05;9.45;;;8.40;;
74344;SDS011;62776;50.518;6.732;2022-12-07T09:40:51;9.07;;;8.18;;
74344;SDS011;62776;50.518;6.732;2022-12-07T09:43:39;9.00;;;7.65;;
74344;SDS011;62776;50.518;6.732;2022-12-07T09:46:26;9.10;;;7.50;;
74344;SDS011;62776;50.518;6.732;2022-12-07T09:49:19;9.13;;;7.50;;
74344;SDS011;62776;50.518;6.732;2022-12-07T09:54:53;9.95;;;7.88;;
74344;SDS011;62776;50.518;6.732;2022-12-07T09:57:39;10.38;;;7.90;;
74344;SDS011;62776;50.518;6.732;2022-12-07T10:00:26;11.15;;;6.90;;
74344;SDS011;62776;50.518;6.732;2022-12-07T10:03:14;10.43;;;7.63;;
74344;SDS011;62776;50.518;6.732;2022-12-07T10:06:00;8.82;;;7.47;;
74344;SDS011;62776;50.518;6.732;2022-12-07T10:08:46;8.15;;;7.22;;
74344;SDS011;62776;50.518;6.732;2022-12-07T10:11:33;8.00;;;7.20;;
74344;SDS011;62776;50.518;6.732;2022-12-07T10:14:19;9.45;;;6.47;;
74344;SDS011;62776;50.518;6.732;2022-12-07T10:20:15;8.93;;;6.05;;
74344;SDS011;62776;50.518;6.732;2022-12-07T10:23:05;6.85;;;5.40;;
74344;SDS011;62776;50.518;6.732;2022-12-07T10:25:58;11.38;;;5.40;;
74344;SDS011;62776;50.518;6.732;2022-12-07T10:29:13;5.50;;;4.35;;
74344;SDS011;62776;50.518;6.732;2022-12-07T10:32:04;7.03;;;4.72;;
74344;SDS011;62776;50.518;6.732;2022-12-07T10:38:28;4.88;;;4.32;;
74344;SDS011;62776;50.518;6.732;2022-12-07T10:41:17;7.55;;;4.82;;
74344;SDS011;62776;50.518;6.732;2022-12-07T10:44:04;4.75;;;3.72;;
74344;SDS011;62776;50.518;6.732;2022-12-07T10:50:02;7.88;;;4.53;;
74344;SDS011;62776;50.518;6.732;2022-12-07T10:56:15;5.20;;;4.00;;
74344;SDS011;62776;50.518;6.732;2022-12-07T10:59:48;9.07;;;4.55;;
74344;SDS011;62776;50.518;6.732;2022-12-07T11:05:53;4.30;;;3.90;;
74344;SDS011;62776;50.518;6.732;2022-12-07T11:09:26;5.70;;;3.95;;
74344;SDS011;62776;50.518;6.732;2022-12-07T11:23:03;3.75;;;2.90;;
74344;SDS011;62776;50.518;6.732;2022-12-07T11:25:35;3.83;;;2.80;;
74344;SDS011;62776;50.518;6.732;2022-12-07T11:31:58;3.70;;;3.40;;
74344;SDS011;62776;50.518;6.732;2022-12-07T11:41:09;7.30;;;5.72;;
74344;SDS011;62776;50.518;6.732;2022-12-07T11:44:06;8.48;;;5.63;;
74344;SDS011;62776;50.518;6.732;2022-12-07T12:01:42;5.97;;;5.38;;
74344;SDS011;62776;50.518;6.732;2022-12-07T12:07:39;6.18;;;5.38;;
74344;SDS011;62776;50.518;6.732;2022-12-07T12:13:52;5.80;;;5.22;;
74344;SDS011;62776;50.518;6.732;2022-12-07T12:23:15;6.70;;;5.20;;
74344;SDS011;62776;50.518;6.732;2022-12-07T12:26:07;7.13;;;5.55;;
74344;SDS011;62776;50.518;6.732;2022-12-07T12:29:04;7.30;;;4.80;;
74344;SDS011;62776;50.518;6.732;2022-12-07T12:41:10;5.05;;;4.57;;
74344;SDS011;62776;50.518;6.732;2022-12-07T12:50:30;4.80;;;4.30;;
74344;SDS011;62776;50.518;6.732;2022-12-07T12:56:13;6.97;;;4.18;;
74344;SDS011;62776;50.518;6.732;2022-12-07T12:59:23;7.50;;;4.20;;
74344;SDS011;62776;50.518;6.732;2022-12-07T13:02:19;5.75;;;4.10;;
74344;SDS011;62776;50.518;6.732;2022-12-07T13:08:04;5.53;;;4.25;;
74344;SDS011;62776;50.518;6.732;2022-12-07T13:11:16;5.18;;;4.03;;
74344;SDS011;62776;50.518;6.732;2022-12-07T13:23:30;5.50;;;3.75;;
74344;SDS011;62776;50.518;6.732;2022-12-07T13:26:35;6.90;;;4.00;;
74344;SDS011;62776;50.518;6.732;2022-12-07T13:29:23;6.57;;;3.92;;
74344;SDS011;62776;50.518;6.732;2022-12-07T13:32:16;4.75;;;4.30;;
74344;SDS011;62776;50.518;6.732;2022-12-07T13:35:33;4.32;;;3.67;;
74344;SDS011;62776;50.518;6.732;2022-12-07T13:38:29;4.75;;;3.70;;
74344;SDS011;62776;50.518;6.732;2022-12-07T13:41:19;4.43;;;3.60;;
74344;SDS011;62776;50.518;6.732;2022-12-07T13:53:13;4.82;;;4.32;;
74344;SDS011;62776;50.518;6.732;2022-12-07T13:55:59;5.88;;;3.85;;
74344;SDS011;62776;50.518;6.732;2022-12-07T13:58:46;4.90;;;3.85;;
74344;SDS011;62776;50.518;6.732;2022-12-07T14:01:32;7.35;;;4.57;;
74344;SDS011;62776;50.518;6.732;2022-12-07T14:04:29;4.25;;;3.78;;
74344;SDS011;62776;50.518;6.732;2022-12-07T14:07:19;5.97;;;3.72;;
74344;SDS011;62776;50.518;6.732;2022-12-07T14:10:22;4.55;;;4.15;;
74344;SDS011;62776;50.518;6.732;2022-12-07T14:13:27;4.55;;;4.15;;
74344;SDS011;62776;50.518;6.732;2022-12-07T14:22:28;6.70;;;5.32;;
74344;SDS011;62776;50.518;6.732;2022-12-07T14:25:17;5.82;;;4.75;;
74344;SDS011;62776;50.518;6.732;2022-12-07T14:28:27;5.35;;;3.90;;
74344;SDS011;62776;50.518;6.732;2022-12-07T14:31:21;4.80;;;4.40;;
74344;SDS011;62776;50.518;6.732;2022-12-07T14:34:13;5.72;;;4.22;;
74344;SDS011;62776;50.518;6.732;2022-12-07T14:36:59;5.55;;;4.95;;
74344;SDS011;62776;50.518;6.732;2022-12-07T14:39:45;5.93;;;4.25;;
74344;SDS011;62776;50.518;6.732;2022-12-07T14:42:31;5.28;;;4.55;;
74344;SDS011;62776;50.518;6.732;2022-12-07T14:45:20;4.95;;;3.95;;
74344;SDS011;62776;50.518;6.732;2022-12-07T14:48:08;6.00;;;4.72;;
74344;SDS011;62776;50.518;6.732;2022-12-07T14:50:57;4.60;;;4.20;;
74344;SDS011;62776;50.518;6.732;2022-12-07T14:53:48;4.95;;;4.45;;
74344;SDS011;62776;50.518;6.732;2022-12-07T14:56:35;5.07;;;4.65;;
74344;SDS011;62776;50.518;6.732;2022-12-07T14:59:21;4.88;;;4.30;;
74344;SDS011;62776;50.518;6.732;2022-12-07T15:02:09;5.25;;;4.32;;
74344;SDS011;62776;50.518;6.732;2022-12-07T15:04:56;4.50;;;4.10;;
74344;SDS011;62776;50.518;6.732;2022-12-07T15:07:42;5.70;;;4.88;;
74344;SDS011;62776;50.518;6.732;2022-12-07T15:10:30;5.43;;;4.63;;
74344;SDS011;62776;50.518;6.732;2022-12-07T15:13:18;4.80;;;4.32;;
74344;SDS011;62776;50.518;6.732;2022-12-07T15:16:22;7.13;;;5.10;;
74344;SDS011;62776;50.518;6.732;2022-12-07T15:19:13;5.28;;;4.70;;
74344;SDS011;62776;50.518;6.732;2022-12-07T15:22:00;5.47;;;4.97;;
74344;SDS011;62776;50.518;6.732;2022-12-07T15:24:46;5.50;;;4.85;;
74344;SDS011;62776;50.518;6.732;2022-12-07T15:27:33;5.10;;;4.70;;
74344;SDS011;62776;50.518;6.732;2022-12-07T15:30:19;4.63;;;4.10;;
74344;SDS011;62776;50.518;6.732;2022-12-07T15:33:05;5.30;;;4.90;;
74344;SDS011;62776;50.518;6.732;2022-12-07T15:35:51;5.30;;;4.80;;
74344;SDS011;62776;50.518;6.732;2022-12-07T15:38:37;5.65;;;4.63;;
74344;SDS011;62776;50.518;6.732;2022-12-07T15:41:23;4.80;;;4.40;;
74344;SDS011;62776;50.518;6.732;2022-12-07T15:44:11;6.47;;;5.07;;
74344;SDS011;62776;50.518;6.732;2022-12-07T15:47:16;5.93;;;5.32;;
74344;SDS011;62776;50.518;6.732;2022-12-07T15:50:05;5.80;;;5.30;;
74344;SDS011;62776;50.518;6.732;2022-12-07T15:52:56;7.00;;;5.63;;
74344;SDS011;62776;50.518;6.732;2022-12-07T15:55:42;5.47;;;5.05;;
74344;SDS011;62776;50.518;6.732;2022-12-07T15:58:28;5.43;;;4.95;;
74344;SDS011;62776;50.518;6.732;2022-12-07T16:01:16;5.65;;;5.15;;
74344;SDS011;62776;50.518;6.732;2022-12-07T16:04:03;6.10;;;5.60;;
74344;SDS011;62776;50.518;6.732;2022-12-07T16:06:49;5.60;;;5.13;;
74344;SDS011;62776;50.518;6.732;2022-12-07T16:09:36;5.90;;;5.28;;
74344;SDS011;62776;50.518;6.732;2022-12-07T16:12:22;4.38;;;4.00;;
74344;SDS011;62776;50.518;6.732;2022-12-07T16:15:10;5.10;;;4.65;;
74344;SDS011;62776;50.518;6.732;2022-12-07T16:17:56;4.30;;;3.90;;
74344;SDS011;62776;50.518;6.732;2022-12-07T16:20:42;5.95;;;5.50;;
74344;SDS011;62776;50.518;6.732;2022-12-07T16:23:28;9.27;;;8.43;;
74344;SDS011;62776;50.518;6.732;2022-12-07T16:26:18;11.05;;;10.05;;
74344;SDS011;62776;50.518;6.732;2022-12-07T16:29:06;12.00;;;5.70;;
74344;SDS011;62776;50.518;6.732;2022-12-07T16:31:52;5.55;;;5.05;;
74344;SDS011;62776;50.518;6.732;2022-12-07T16:34:39;6.70;;;6.07;;
74344;SDS011;62776;50.518;6.732;2022-12-07T16:37:25;6.90;;;6.30;;
74344;SDS011;62776;50.518;6.732;2022-12-07T16:40:11;7.57;;;6.93;;
74344;SDS011;62776;50.518;6.732;2022-12-07T16:42:57;8.30;;;7.60;;
74344;SDS011;62776;50.518;6.732;2022-12-07T16:45:45;8.48;;;7.88;;
74344;SDS011;62776;50.518;6.732;2022-12-07T16:48:35;8.73;;;7.93;;
74344;SDS011;62776;50.518;6.732;2022-12-07T16:51:22;8.05;;;7.35;;
74344;SDS011;62776;50.518;6.732;2022-12-07T16:54:09;8.23;;;7.53;;
74344;SDS011;62776;50.518;6.732;2022-12-07T16:56:56;8.13;;;7.53;;
74344;SDS011;62776;50.518;6.732;2022-12-07T16:59:42;9.68;;;7.28;;
74344;SDS011;62776;50.518;6.732;2022-12-07T17:02:29;8.27;;;7.50;;
74344;SDS011;62776;50.518;6.732;2022-12-07T17:05:15;8.98;;;8.20;;
74344;SDS011;62776;50.518;6.732;2022-12-07T17:08:01;7.35;;;6.75;;
74344;SDS011;62776;50.518;6.732;2022-12-07T17:10:48;9.32;;;8.45;;
74344;SDS011;62776;50.518;6.732;2022-12-07T17:13:34;10.15;;;9.35;;
74344;SDS011;62776;50.518;6.732;2022-12-07T17:16:38;13.40;;;12.40;;
74344;SDS011;62776;50.518;6.732;2022-12-07T17:19:24;9.07;;;8.35;;
74344;SDS011;62776;50.518;6.732;2022-12-07T17:22:10;10.82;;;10.02;;
74344;SDS011;62776;50.518;6.732;2022-12-07T17:24:57;9.80;;;8.95;;
74344;SDS011;62776;50.518;6.732;2022-12-07T17:27:43;8.30;;;7.50;;
74344;SDS011;62776;50.518;6.732;2022-12-07T17:30:30;7.95;;;7.25;;
74344;SDS011;62776;50.518;6.732;2022-12-07T17:33:16;7.70;;;7.00;;
74344;SDS011;62776;50.518;6.732;2022-12-07T17:36:12;6.57;;;5.97;;
74344;SDS011;62776;50.518;6.732;2022-12-07T17:39:09;6.30;;;5.80;;
74344;SDS011;62776;50.518;6.732;2022-12-07T17:41:58;5.68;;;5.18;;
74344;SDS011;62776;50.518;6.732;2022-12-07T17:45:03;5.97;;;5.47;;
74344;SDS011;62776;50.518;6.732;2022-12-07T17:47:53;6.00;;;5.50;;
74344;SDS011;62776;50.518;6.732;2022-12-07T17:50:39;5.40;;;4.90;;
74344;SDS011;62776;50.518;6.732;2022-12-07T17:53:47;6.60;;;5.75;;
74344;SDS011;62776;50.518;6.732;2022-12-07T17:56:35;6.35;;;5.80;;
74344;SDS011;62776;50.518;6.732;2022-12-07T17:59:21;6.45;;;5.93;;
74344;SDS011;62776;50.518;6.732;2022-12-07T18:02:08;7.25;;;6.65;;
74344;SDS011;62776;50.518;6.732;2022-12-07T18:04:55;8.00;;;7.30;;
74344;SDS011;62776;50.518;6.732;2022-12-07T18:07:41;8.20;;;7.53;;
74344;SDS011;62776;50.518;6.732;2022-12-07T18:10:27;9.07;;;8.27;;
74344;SDS011;62776;50.518;6.732;2022-12-07T18:13:13;8.63;;;7.93;;
74344;SDS011;62776;50.518;6.732;2022-12-07T18:16:19;9.60;;;7.35;;
74344;SDS011;62776;50.518;6.732;2022-12-07T18:19:09;11.40;;;10.40;;
74344;SDS011;62776;50.518;6.732;2022-12-07T18:21:58;8.15;;;7.43;;
74344;SDS011;62776;50.518;6.732;2022-12-07T18:24:45;8.85;;;7.95;;
74344;SDS011;62776;50.518;6.732;2022-12-07T18:27:31;7.57;;;6.97;;
74344;SDS011;62776;50.518;6.732;2022-12-07T18:30:17;7.80;;;7.10;;
74344;SDS011;62776;50.518;6.732;2022-12-07T18:33:03;7.47;;;6.88;;
74344;SDS011;62776;50.518;6.732;2022-12-07T18:35:49;8.52;;;7.72;;
74344;SDS011;62776;50.518;6.732;2022-12-07T18:38:35;8.23;;;7.53;;
74344;SDS011;62776;50.518;6.732;2022-12-07T18:41:22;8.88;;;8.07;;
74344;SDS011;62776;50.518;6.732;2022-12-07T18:44:08;8.60;;;7.80;;
74344;SDS011;62776;50.518;6.732;2022-12-07T18:46:54;8.90;;;8.10;;
74344;SDS011;62776;50.518;6.732;2022-12-07T18:49:40;8.88;;;7.97;;
74344;SDS011;62776;50.518;6.732;2022-12-07T18:52:26;8.60;;;7.80;;
74344;SDS011;62776;50.518;6.732;2022-12-07T18:55:12;10.45;;;9.48;;